Time;durP1;ratioP1;P1;durP2;ratioP2;P2;SDS_P1;SDS_P2;PMS_P1;PMS_P2;Temp;Humidity;BMP_temperature;BMP_pressure;BME280_temperature;BME280_humidity;BME280_pressure;Samples;Min_cycle;Max_cycle;Signal;HPM_P1;HPM_P2
2021/03/20 00:00:37;;;;;;;4.10;3.47;;;;;;;22.31;65.93;101938.03;4962130;28;20049;-62
2021/03/20 00:03:03;;;;;;;4.32;3.80;;;;;;;22.33;65.76;101954.06;4967912;28;20477;-62
2021/03/20 00:05:28;;;;;;;5.25;3.83;;;;;;;22.30;66.02;101953.25;4965591;28;20038;-62
2021/03/20 00:07:54;;;;;;;4.88;3.75;;;;;;;22.30;66.21;101949.69;4967962;28;20023;-62
2021/03/20 00:10:21;;;;;;;5.50;4.20;;;;;;;22.29;65.84;101943.44;4971265;28;20034;-62
2021/03/20 00:12:47;;;;;;;3.15;2.75;;;;;;;22.28;66.17;101951.56;4978237;28;20026;-62
2021/03/20 00:15:15;;;;;;;5.22;3.78;;;;;;;22.30;66.15;101957.75;4970286;28;20030;-62
2021/03/20 00:17:41;;;;;;;4.07;3.65;;;;;;;22.29;66.02;101958.69;4962716;28;20031;-62
2021/03/20 00:20:10;;;;;;;5.13;3.13;;;;;;;22.30;65.85;101949.69;4976582;28;20034;-62
2021/03/20 00:22:35;;;;;;;4.28;3.28;;;;;;;22.28;66.25;101949.72;4972442;28;20485;-62
2021/03/20 00:25:00;;;;;;;4.88;3.47;;;;;;;22.28;66.11;101948.88;4972163;28;20050;-62
2021/03/20 00:27:26;;;;;;;4.85;3.53;;;;;;;22.29;66.16;101950.63;4969912;28;20130;-62
2021/03/20 00:29:51;;;;;;;4.68;3.30;;;;;;;22.27;65.95;101953.38;4973456;28;20110;-62
2021/03/20 00:32:16;;;;;;;3.60;3.08;;;;;;;22.28;66.11;101951.56;4969493;28;20050;-62
2021/03/20 00:34:42;;;;;;;4.72;4.03;;;;;;;22.26;66.03;101951.63;4967070;28;20444;-62
2021/03/20 00:37:08;;;;;;;3.97;3.58;;;;;;;22.25;66.18;101957.06;4972351;28;20403;-62
2021/03/20 00:39:33;;;;;;;5.55;2.72;;;;;;;22.25;66.06;101965.13;4968321;28;20034;-62
2021/03/20 00:41:59;;;;;;;4.72;3.03;;;;;;;22.24;66.13;101966.91;4969419;28;20035;-62
2021/03/20 00:44:24;;;;;;;3.80;3.25;;;;;;;22.25;66.21;101957.06;4964308;28;20073;-62
2021/03/20 00:46:49;;;;;;;3.15;2.85;;;;;;;22.25;66.26;101949.00;4973404;28;20077;-62
2021/03/20 00:49:15;;;;;;;3.17;2.83;;;;;;;22.23;66.18;101951.72;4969095;28;20057;-62
2021/03/20 00:51:40;;;;;;;3.25;2.65;;;;;;;22.25;66.03;101951.69;4971954;28;20467;-62
2021/03/20 00:54:05;;;;;;;5.40;3.53;;;;;;;22.23;66.13;101956.22;4966967;28;20050;-62
2021/03/20 00:56:31;;;;;;;3.75;3.45;;;;;;;22.23;66.08;101953.53;4971380;28;20027;-62
2021/03/20 00:58:56;;;;;;;3.80;3.10;;;;;;;22.22;65.98;101957.16;4972435;28;20433;-62
2021/03/20 01:01:22;;;;;;;3.22;2.90;;;;;;;22.21;66.27;101955.44;4974997;28;20573;-62
2021/03/20 01:03:48;;;;;;;4.38;3.05;;;;;;;22.22;66.02;101946.41;4965470;28;20033;-62
2021/03/20 01:06:24;;;;;;;4.15;3.05;;;;;;;22.21;66.15;101939.31;4965855;28;20427;-62
2021/03/20 01:08:50;;;;;;;4.57;3.45;;;;;;;22.20;66.01;101953.69;4966625;28;20022;-62
2021/03/20 01:11:16;;;;;;;4.20;3.15;;;;;;;22.21;65.91;101960.78;4966981;28;20057;-62
2021/03/20 01:13:41;;;;;;;2.50;2.30;;;;;;;22.20;66.12;101967.13;4967633;28;20476;-62
2021/03/20 01:16:08;;;;;;;4.20;3.28;;;;;;;22.18;66.17;101967.16;4970098;28;20030;-62
2021/03/20 01:18:34;;;;;;;3.08;2.78;;;;;;;22.18;66.10;101959.97;4965858;28;20397;-62
2021/03/20 01:20:59;;;;;;;3.00;2.63;;;;;;;22.18;66.02;101945.69;4967070;28;20543;-62
2021/03/20 01:23:24;;;;;;;2.90;2.67;;;;;;;22.17;66.16;101949.28;4969761;28;20121;-62
2021/03/20 01:25:50;;;;;;;5.38;3.20;;;;;;;22.17;66.17;101950.16;4967537;28;20018;-62
2021/03/20 01:28:15;;;;;;;3.20;2.67;;;;;;;22.16;66.12;101959.16;4963717;28;20143;-61
2021/03/20 01:30:42;;;;;;;2.83;2.58;;;;;;;22.16;66.05;101953.78;4968670;28;20640;-62
2021/03/20 01:33:09;;;;;;;5.28;3.28;;;;;;;22.15;66.01;101957.38;4966644;28;20077;-62
2021/03/20 01:35:34;;;;;;;2.85;2.63;;;;;;;22.15;66.05;101946.63;4964963;28;20034;-62
2021/03/20 01:38:01;;;;;;;3.75;2.28;;;;;;;22.15;66.17;101945.78;4967527;28;20027;-62
2021/03/20 01:40:30;;;;;;;4.65;2.65;;;;;;;22.15;66.12;101937.72;4966250;28;20357;-62
2021/03/20 01:42:55;;;;;;;4.30;3.13;;;;;;;22.15;66.01;101953.84;4966435;28;20030;-62
2021/03/20 01:45:21;;;;;;;3.65;3.20;;;;;;;22.15;66.25;101953.84;4966693;28;20041;-61
2021/03/20 01:47:51;;;;;;;2.85;2.50;;;;;;;22.14;66.25;101952.09;4967158;28;20021;-62
2021/03/20 01:50:23;;;;;;;2.58;2.38;;;;;;;22.14;66.22;101950.28;4964342;28;20038;-62
2021/03/20 01:52:53;;;;;;;3.88;2.90;;;;;;;22.15;66.21;101962.75;4970188;28;20034;-62
2021/03/20 01:55:18;;;;;;;3.90;2.63;;;;;;;22.13;66.17;101958.38;4966990;28;20511;-62
2021/03/20 01:57:46;;;;;;;4.60;2.88;;;;;;;22.14;66.32;101955.63;4966191;28;20077;-62
2021/03/20 02:00:35;;;;;;;2.53;2.13;;;;;;;22.13;66.23;101959.28;4959400;28;20031;-62
2021/03/20 02:03:03;;;;;;;3.38;2.78;;;;;;;22.15;66.25;101956.53;4961311;28;20031;-62
2021/03/20 02:05:30;;;;;;;3.28;2.97;;;;;;;22.13;66.05;101948.53;4950896;28;20032;-62
2021/03/20 02:07:56;;;;;;;2.95;2.58;;;;;;;22.14;66.41;101960.16;4968750;28;20456;-62
2021/03/20 02:10:23;;;;;;;2.70;2.50;;;;;;;22.14;66.39;101960.16;4981157;28;20117;-62
2021/03/20 02:12:55;;;;;;;3.85;2.88;;;;;;;22.14;66.35;101963.69;4964250;28;20050;-62
2021/03/20 02:15:25;;;;;;;3.33;3.05;;;;;;;22.15;66.46;101946.63;4966516;28;20035;-62
2021/03/20 02:17:56;;;;;;;3.35;2.50;;;;;;;22.15;66.45;101943.94;4966141;28;20041;-62
2021/03/20 02:20:45;;;;;;;;;;;;;;;22.15;66.25;101946.63;4961366;28;20026;-62
2021/03/20 02:23:10;;;;;;;2.50;2.20;;;;;;;22.16;66.40;101956.47;4963506;28;19913;-62
2021/03/20 02:25:57;;;;;;;2.85;2.50;;;;;;;22.16;66.41;101959.16;4968447;28;20038;-62
2021/03/20 02:28:53;;;;;;;3.30;2.72;;;;;;;22.18;66.50;101961.78;4967326;28;20029;-62
2021/03/20 02:31:37;;;;;;;3.30;3.00;;;;;;;22.19;66.55;101960.84;4971427;28;20065;-62
2021/03/20 02:34:24;;;;;;;3.10;2.40;;;;;;;22.18;66.27;101965.34;4968653;28;20106;-62
2021/03/20 02:37:11;;;;;;;3.80;2.55;;;;;;;22.17;66.41;101958.22;4971508;28;20033;-62
2021/03/20 02:40:03;;;;;;;3.97;2.60;;;;;;;22.17;66.57;101963.59;4968763;28;20266;-62
2021/03/20 02:42:44;;;;;;;3.15;2.22;;;;;;;22.16;66.40;101959.16;4971165;28;20494;-62
2021/03/20 02:45:21;;;;;;;2.55;2.15;;;;;;;22.17;66.42;101960.03;4968371;28;20103;-62
2021/03/20 02:47:52;;;;;;;2.80;2.60;;;;;;;22.17;66.28;101966.28;4969542;28;20416;-62
2021/03/20 02:50:23;;;;;;;2.33;2.13;;;;;;;22.17;66.36;101963.59;4965003;28;20042;-62
2021/03/20 02:52:55;;;;;;;4.35;2.40;;;;;;;22.18;66.29;101959.97;4963779;28;20100;-62
2021/03/20 02:55:24;;;;;;;3.85;2.50;;;;;;;22.18;66.15;101959.97;4969949;28;20118;-62
2021/03/20 02:57:55;;;;;;;3.40;2.53;;;;;;;22.18;66.38;101959.97;4964618;28;20071;-62
2021/03/20 03:00:25;;;;;;;2.75;2.40;;;;;;;22.20;66.31;101959.06;4966855;28;20038;-62
2021/03/20 03:02:52;;;;;;;2.60;2.30;;;;;;;22.21;66.35;101955.44;4968013;28;20026;-62
2021/03/20 03:05:19;;;;;;;2.67;2.13;;;;;;;22.18;66.19;101949.22;4969147;28;20049;-62
2021/03/20 03:07:50;;;;;;;2.80;2.58;;;;;;;22.20;66.19;101959.06;4970171;28;20022;-62
2021/03/20 03:10:17;;;;;;;;;;;;;;;22.17;66.12;101960.91;4966793;28;20476;-62
2021/03/20 03:12:48;;;;;;;3.10;2.63;;;;;;;22.18;66.34;101968.03;4969868;28;20311;-62
2021/03/20 03:15:17;;;;;;;2.20;2.00;;;;;;;22.19;66.02;101974.28;4965893;28;20026;-62
2021/03/20 03:17:47;;;;;;;2.63;2.28;;;;;;;22.18;66.20;101968.03;4969617;28;20033;-62
2021/03/20 03:20:20;;;;;;;3.08;2.58;;;;;;;22.18;66.13;101956.41;4953155;28;20031;-62
2021/03/20 03:22:50;;;;;;;2.45;1.90;;;;;;;22.16;65.94;101943.03;4965938;28;20035;-62
2021/03/20 03:25:18;;;;;;;2.35;2.05;;;;;;;22.17;66.18;101947.47;4969265;28;20101;-62
2021/03/20 03:27:48;;;;;;;2.60;2.40;;;;;;;22.17;66.09;101939.41;4968013;28;20061;-62
2021/03/20 03:30:16;;;;;;;2.70;2.30;;;;;;;22.15;66.10;101943.94;4962639;28;20723;-62
2021/03/20 03:32:45;;;;;;;3.38;2.60;;;;;;;22.16;66.22;101948.41;4965506;28;20035;-62
2021/03/20 03:35:15;;;;;;;2.30;2.03;;;;;;;22.15;66.14;101952.00;4969329;28;20046;-62
2021/03/20 03:37:59;;;;;;;3.47;2.67;;;;;;;22.15;65.98;101960.06;4966969;28;20023;-62
2021/03/20 03:40:33;;;;;;;2.30;2.00;;;;;;;22.14;66.29;101969.06;4968277;28;20126;-62
2021/03/20 03:42:59;;;;;;;3.00;2.65;;;;;;;22.15;65.89;101968.13;4970044;28;20543;-62
2021/03/20 03:45:25;;;;;;;1.80;1.70;;;;;;;22.15;66.02;101967.28;4973050;28;20109;-62
2021/03/20 03:47:50;;;;;;;2.60;2.10;;;;;;;22.15;66.00;101968.13;4968949;28;20362;-62
2021/03/20 03:50:23;;;;;;;3.15;2.38;;;;;;;22.14;65.98;101974.44;4970036;28;20146;-62
2021/03/20 03:52:48;;;;;;;2.35;1.92;;;;;;;22.14;66.01;101966.38;4968297;28;20055;-62
2021/03/20 03:55:14;;;;;;;2.38;2.17;;;;;;;22.12;66.03;101952.16;4958339;28;20469;-62
2021/03/20 03:58:01;;;;;;;2.55;2.17;;;;;;;22.12;65.77;101962.91;4968443;28;20041;-62
2021/03/20 04:00:32;;;;;;;3.92;2.42;;;;;;;;;;4969948;28;20030;-62
2021/03/20 04:03:17;;;;;;;3.03;2.13;;;;;;;22.11;65.72;101974.56;4967290;28;20022;-62
2021/03/20 04:06:06;;;;;;;1.42;1.33;;;;;;;22.13;65.87;101972.69;4973126;28;20516;-62
2021/03/20 04:08:44;;;;;;;1.75;1.60;;;;;;;22.12;65.67;101968.28;4968284;28;20031;-62
2021/03/20 04:11:25;;;;;;;1.92;1.60;;;;;;;22.10;65.92;101964.75;4966039;28;20479;-62
2021/03/20 04:13:58;;;;;;;2.35;1.80;;;;;;;22.11;65.47;101974.56;4964538;28;20451;-62
2021/03/20 04:16:30;;;;;;;1.92;1.70;;;;;;;22.10;65.75;101972.81;4971786;28;20030;-62
2021/03/20 04:19:11;;;;;;;2.65;2.40;;;;;;;22.09;65.66;101984.50;4965103;28;20031;-62
2021/03/20 04:22:00;;;;;;;2.78;1.70;;;;;;;22.09;65.74;101989.00;4965986;28;20518;-62
2021/03/20 04:24:30;;;;;;;2.20;2.00;;;;;;;22.09;65.69;101980.94;4950385;28;20110;-62
2021/03/20 04:27:00;;;;;;;1.90;1.42;;;;;;;22.09;65.49;101989.88;4968119;28;20057;-62
2021/03/20 04:29:50;;;;;;;2.22;1.90;;;;;;;22.07;65.61;101986.34;4961588;28;20085;-62
2021/03/20 04:32:20;;;;;;;2.00;1.80;;;;;;;22.07;65.44;101990.88;4967054;28;20033;-62
2021/03/20 04:35:06;;;;;;;2.15;1.95;;;;;;;22.08;65.59;102008.72;4964302;28;20029;-62
2021/03/20 04:37:39;;;;;;;2.28;1.65;;;;;;;22.09;65.59;102002.41;4967744;28;20054;-62
2021/03/20 04:40:09;;;;;;;1.85;1.55;;;;;;;22.08;65.42;102004.25;4965620;28;20138;-62
2021/03/20 04:42:36;;;;;;;2.00;1.83;;;;;;;22.07;65.48;102002.47;4964459;28;20035;-62
2021/03/20 04:45:16;;;;;;;2.95;2.65;;;;;;;22.09;65.30;102007.78;4965765;28;20070;-62
2021/03/20 04:47:42;;;;;;;2.05;1.92;;;;;;;22.09;65.46;102007.78;4973203;28;20640;-62
2021/03/20 04:50:16;;;;;;;1.55;1.40;;;;;;;22.09;65.59;102006.00;4967527;28;20034;-62
2021/03/20 04:52:43;;;;;;;2.38;2.17;;;;;;;22.08;65.55;102004.25;4968850;28;20373;-61
2021/03/20 04:55:10;;;;;;;1.90;1.80;;;;;;;22.08;65.57;102004.25;4971470;28;20035;-63
2021/03/20 04:57:46;;;;;;;1.42;1.33;;;;;;;22.09;65.51;101999.72;4968064;28;20037;-62
2021/03/20 05:00:21;;;;;;;2.00;1.90;;;;;;;22.09;65.48;102011.38;4960562;28;20081;-62
2021/03/20 05:03:25;;;;;;;1.27;1.17;;;;;;;22.11;65.36;102005.94;4967768;28;20046;-62
2021/03/20 05:05:53;;;;;;;2.00;1.80;;;;;;;22.10;65.50;102004.16;4968785;28;20035;-62
2021/03/20 05:08:41;;;;;;;1.90;1.80;;;;;;;22.11;65.47;102000.56;4965250;28;20034;-62
2021/03/20 05:11:12;;;;;;;2.00;1.80;;;;;;;22.13;65.51;102009.44;4961343;28;20495;-62
2021/03/20 05:13:56;;;;;;;2.20;1.98;;;;;;;22.14;65.44;102009.38;4968334;28;20129;-62
2021/03/20 05:16:41;;;;;;;1.67;1.58;;;;;;;22.15;65.33;102012.94;4967999;28;20046;-62
2021/03/20 05:19:07;;;;;;;1.50;1.40;;;;;;;22.15;65.39;102007.56;4965847;28;20070;-62
2021/03/20 05:21:36;;;;;;;1.42;1.33;;;;;;;22.17;65.26;102003.88;4966450;28;20094;-62
2021/03/20 05:24:01;;;;;;;2.97;2.05;;;;;;;22.14;65.29;101995.94;4961318;28;20033;-62
2021/03/20 05:26:32;;;;;;;1.88;1.77;;;;;;;22.16;65.32;102007.53;4965946;28;20030;-62
2021/03/20 05:28:57;;;;;;;2.38;1.92;;;;;;;22.16;65.25;102002.16;4973958;28;20023;-62
2021/03/20 05:31:23;;;;;;;1.70;1.60;;;;;;;22.20;65.01;101996.66;4964801;28;20045;-62
2021/03/20 05:33:49;;;;;;;1.63;1.52;;;;;;;22.18;65.13;101994.88;4964664;28;20026;-63
2021/03/20 05:36:15;;;;;;;3.00;1.73;;;;;;;22.18;64.94;102000.25;4958803;28;20481;-62
2021/03/20 05:38:41;;;;;;;1.92;1.48;;;;;;;22.18;65.11;102005.63;4960455;28;20026;-62
2021/03/20 05:41:16;;;;;;;1.75;1.65;;;;;;;22.20;65.20;102012.78;4966736;28;20022;-62
2021/03/20 05:44:05;;;;;;;2.30;1.88;;;;;;;22.20;65.09;102004.72;4962145;28;20023;-63
2021/03/20 05:46:49;;;;;;;2.20;2.00;;;;;;;22.20;64.88;102023.53;4957832;28;20057;-62
2021/03/20 05:49:33;;;;;;;1.48;1.38;;;;;;;22.21;65.01;102022.59;4960639;28;20110;-63
2021/03/20 05:52:30;;;;;;;1.77;1.67;;;;;;;22.19;65.00;102022.66;4968797;28;20031;-63
2021/03/20 05:55:19;;;;;;;1.73;1.58;;;;;;;22.19;64.90;102025.34;4979904;28;21086;-62
2021/03/20 05:57:50;;;;;;;1.70;1.60;;;;;;;22.21;65.08;102025.28;4967575;28;20034;-63
2021/03/20 06:00:35;;;;;;;1.90;1.70;;;;;;;22.20;64.79;102028.91;4968391;28;20041;-63
2021/03/20 06:03:21;;;;;;;1.85;1.67;;;;;;;22.18;64.94;102021.75;4973720;28;20138;-62
2021/03/20 06:05:53;;;;;;;2.28;1.42;;;;;;;22.21;64.94;102030.66;4969060;28;20050;-62
2021/03/20 06:08:30;;;;;;;1.83;1.55;;;;;;;22.20;64.64;102032.44;4960862;28;20094;-62
2021/03/20 06:11:01;;;;;;;1.90;1.80;;;;;;;22.20;64.58;102040.50;4971192;28;20058;-62
2021/03/20 06:13:34;;;;;;;1.88;1.50;;;;;;;22.20;64.72;102023.53;4962224;28;20114;-62
2021/03/20 06:16:27;;;;;;;2.20;1.45;;;;;;;22.21;64.57;102033.34;4964437;28;20042;-62
2021/03/20 06:18:52;;;;;;;2.30;1.80;;;;;;;22.20;64.52;102036.97;4971773;28;20027;-63
2021/03/20 06:21:42;;;;;;;1.60;1.30;;;;;;;22.21;64.66;102041.41;4975380;28;20499;-62
2021/03/20 06:24:37;;;;;;;1.77;1.67;;;;;;;22.19;64.59;102049.50;4964307;28;20266;-62
2021/03/20 06:27:04;;;;;;;1.55;1.45;;;;;;;22.19;64.50;102046.81;4965555;28;20034;-62
2021/03/20 06:29:35;;;;;;;1.77;1.58;;;;;;;22.20;64.38;102047.72;4972074;28;20050;-63
2021/03/20 06:32:25;;;;;;;1.83;1.63;;;;;;;22.18;64.68;102055.81;4969093;28;20073;-63
2021/03/20 06:35:07;;;;;;;2.42;1.73;;;;;;;22.17;64.47;102054.06;4966244;28;20475;-62
2021/03/20 06:37:35;;;;;;;1.55;1.33;;;;;;;22.17;64.49;102051.38;4968127;28;20059;-63
2021/03/20 06:40:06;;;;;;;1.20;1.10;;;;;;;22.18;64.32;102067.44;4970315;28;20022;-62
2021/03/20 06:42:36;;;;;;;1.80;1.50;;;;;;;22.16;64.32;102061.25;4985547;28;20027;-63
2021/03/20 06:45:07;;;;;;;1.67;1.45;;;;;;;22.16;64.45;102063.06;4968092;28;20040;-63
2021/03/20 06:47:34;;;;;;;2.80;1.67;;;;;;;22.15;64.28;102058.63;4968043;28;20061;-63
2021/03/20 06:50:40;;;;;;;1.75;1.65;;;;;;;22.16;64.25;102069.31;4969145;28;20026;-62
2021/03/20 06:53:07;;;;;;;1.45;1.35;;;;;;;22.14;64.24;102057.72;4969749;28;20470;-62
2021/03/20 06:55:38;;;;;;;2.20;2.00;;;;;;;22.14;64.07;102057.72;4969685;28;20143;-62
2021/03/20 06:58:28;;;;;;;2.10;1.58;;;;;;;22.14;64.17;102065.78;4967122;28;20046;-63
2021/03/20 07:00:55;;;;;;;2.13;1.93;;;;;;;22.14;64.23;102070.31;4984007;28;20550;-62
2021/03/20 07:03:58;;;;;;;2.38;2.15;;;;;;;22.13;64.04;102076.59;4970246;28;20015;-62
2021/03/20 07:06:26;;;;;;;2.28;1.67;;;;;;;;;;4983203;28;20114;-63
2021/03/20 07:08:56;;;;;;;1.80;1.70;;;;;;;22.12;63.95;102081.09;4967011;28;20027;-63
2021/03/20 07:11:26;;;;;;;1.60;1.50;;;;;;;22.10;64.08;102082.97;4968916;28;20105;-62
2021/03/20 07:13:56;;;;;;;1.58;1.40;;;;;;;22.11;64.04;102089.22;4968304;28;20424;-62
2021/03/20 07:16:23;;;;;;;1.75;1.50;;;;;;;22.12;63.84;102091.84;4973055;28;20042;-63
2021/03/20 07:18:53;;;;;;;1.60;1.17;;;;;;;22.11;63.80;102094.59;4967026;28;20046;-63
2021/03/20 07:21:25;;;;;;;;;;;;;;;22.02;61.70;102095.78;4967745;28;20054;-62
2021/03/20 07:24:02;;;;;;;1.90;1.80;;;;;;;21.77;59.48;102091.25;4967520;28;20478;-61
2021/03/20 07:26:28;;;;;;;2.88;2.58;;;;;;;21.39;51.67;102088.88;4948432;28;20030;-63
2021/03/20 07:28:56;;;;;;;3.47;3.13;;;;;;;21.12;49.12;102089.72;4960523;28;20045;-64
2021/03/20 07:31:22;;;;;;;4.80;4.22;;;;;;;20.62;44.78;102085.81;4966196;28;20049;-64
2021/03/20 07:33:53;;;;;;;7.22;5.53;;;;;;;20.31;41.68;102092.03;4958780;28;20011;-64
2021/03/20 07:36:35;;;;;;;6.88;6.28;;;;;;;20.12;40.22;102097.91;4970028;28;20497;-63
2021/03/20 07:39:07;;;;;;;7.47;6.78;;;;;;;20.07;39.58;102099.81;4973617;28;20034;-64
2021/03/20 07:41:55;;;;;;;10.68;7.05;;;;;;;19.90;38.74;102092.19;4968500;28;20102;-63
2021/03/20 07:44:22;;;;;;;7.80;6.57;;;;;;;19.88;38.11;102086.88;4971207;28;20023;-64
2021/03/20 07:46:48;;;;;;;6.93;6.25;;;;;;;19.62;37.00;102087.56;4972020;28;20023;-63
2021/03/20 07:49:27;;;;;;;6.22;5.72;;;;;;;19.67;37.11;102090.13;4950006;28;20104;-63
2021/03/20 07:52:01;;;;;;;5.50;5.00;;;;;;;19.57;36.61;102089.47;4966835;28;20026;-63
2021/03/20 07:54:31;;;;;;;6.53;5.20;;;;;;;19.56;35.66;102088.59;4966743;28;20023;-63
2021/03/20 07:57:06;;;;;;;4.65;4.10;;;;;;;19.68;36.32;102078.50;4967775;28;20060;-63
2021/03/20 07:59:32;;;;;;;5.15;3.85;;;;;;;19.31;35.32;102077.59;4955166;28;20022;-63
2021/03/20 08:01:59;;;;;;;4.15;3.25;;;;;;;19.65;37.00;102086.59;4968546;28;20369;-63
2021/03/20 08:05:03;;;;;;;3.72;3.42;;;;;;;19.45;36.16;102085.28;4970483;28;20037;-63
2021/03/20 08:07:42;;;;;;;5.30;3.30;;;;;;;19.19;34.83;102078.75;4969767;28;20039;-63
2021/03/20 08:10:17;;;;;;;4.00;3.15;;;;;;;19.25;34.86;102086.66;4980986;28;20058;-63
2021/03/20 08:12:59;;;;;;;3.90;2.83;;;;;;;19.15;34.36;102080.63;4967067;28;20019;-63
2021/03/20 08:15:28;;;;;;;3.25;2.72;;;;;;;19.03;33.61;102073.72;4967802;28;20027;-63
2021/03/20 08:17:54;;;;;;;3.58;2.50;;;;;;;18.79;33.37;102080.47;4964887;28;20029;-63
2021/03/20 08:20:20;;;;;;;3.88;2.58;;;;;;;18.76;32.75;102080.53;4966620;28;20023;-64
2021/03/20 08:23:01;;;;;;;4.22;2.22;;;;;;;18.68;33.11;102073.56;4983390;28;20034;-63
2021/03/20 08:25:45;;;;;;;8.90;3.13;;;;;;;18.59;32.08;102074.66;4968935;28;20034;-63
2021/03/20 08:28:38;;;;;;;3.75;2.58;;;;;;;18.59;32.07;102071.09;4970377;28;20042;-63
2021/03/20 08:31:16;;;;;;;3.05;2.33;;;;;;;18.50;31.77;102074.81;4965269;28;20066;-63
2021/03/20 08:34:06;;;;;;;3.35;2.60;;;;;;;18.44;31.84;102081.19;4963132;28;20081;-63
2021/03/20 08:37:09;;;;;;;2.90;2.30;;;;;;;18.45;31.81;102076.72;4965755;28;20551;-63
2021/03/20 08:39:55;;;;;;;2.10;1.80;;;;;;;18.26;31.40;102081.53;4969822;28;20042;-63
2021/03/20 08:42:53;;;;;;;3.72;1.58;;;;;;;18.31;31.98;102085.88;4973809;28;20085;-63
2021/03/20 08:45:43;;;;;;;4.20;2.00;;;;;;;18.75;35.72;102084.13;4982063;28;20092;-63
2021/03/20 08:48:11;;;;;;;3.03;1.63;;;;;;;19.06;37.91;102076.38;4969698;28;20030;-62
2021/03/20 10:08:20;;;;;;;13.57;1.70;;;;;;;22.89;40.75;102055.00;5041332;28;20421;-73
2021/03/20 10:12:14;;;;;;;3.58;3.28;;;;;;;18.03;24.74;102067.69;5088519;27;20439;-73
2021/03/20 10:14:51;;;;;;;5.43;4.53;;;;;;;15.04;29.23;102060.47;5078425;28;20078;-72
2021/03/20 10:17:22;;;;;;;7.07;5.03;;;;;;;16.05;27.49;102062.41;5068270;28;20071;-73
2021/03/20 10:19:54;;;;;;;1.80;1.70;;;;;;;13.40;30.78;102068.72;5034029;28;20063;-73
2021/03/20 10:22:32;;;;;;;7.13;5.15;;;;;;;11.80;31.34;102070.56;5050651;28;20392;-73
2021/03/20 10:24:58;;;;;;;3.17;1.63;;;;;;;11.39;31.55;102068.44;5049821;28;20106;-73
2021/03/20 10:27:33;;;;;;;1.42;1.27;;;;;;;12.83;30.78;102065.03;5050946;28;20060;-73
2021/03/20 10:30:19;;;;;;;7.72;5.32;;;;;;;13.33;31.64;102067.81;5048306;28;20020;-73
2021/03/20 10:32:58;;;;;;;3.45;2.38;;;;;;;13.24;29.98;102068.66;5050487;28;20040;-73
2021/03/20 10:35:24;;;;;;;2.85;1.90;;;;;;;12.42;31.57;102067.50;5052058;28;20027;-73
2021/03/20 10:37:49;;;;;;;3.15;1.73;;;;;;;11.14;31.54;102068.19;5050797;28;20074;-73
2021/03/20 10:40:23;;;;;;;1.98;1.60;;;;;;;12.08;28.37;102074.31;5068353;28;20017;-73
2021/03/20 10:42:52;;;;;;;1.80;1.70;;;;;;;12.49;28.89;102065.75;5050687;28;20020;-73
2021/03/20 10:45:38;;;;;;;2.88;2.05;;;;;;;12.25;30.88;102061.22;5050563;28;20021;-73
2021/03/20 10:48:10;;;;;;;2.67;1.50;;;;;;;10.31;35.45;102064.50;5050798;28;20017;-73
2021/03/20 10:50:41;;;;;;;2.38;1.77;;;;;;;9.01;35.92;102058.78;5068353;28;20028;-73
2021/03/20 10:53:34;;;;;;;1.98;1.75;;;;;;;10.03;35.44;102068.47;5067229;28;20040;-73
2021/03/20 10:56:00;;;;;;;2.92;2.05;;;;;;;9.97;35.79;102059.56;5046539;28;20041;-73
2021/03/20 10:58:34;;;;;;;1.95;1.73;;;;;;;11.27;34.69;102066.56;5050319;28;20025;-73
2021/03/20 11:00:59;;;;;;;2.25;2.05;;;;;;;10.78;33.91;102054.56;5027829;28;20021;-73
2021/03/20 11:03:38;;;;;;;2.25;1.77;;;;;;;11.53;30.41;102044.78;5043649;28;20032;-73
2021/03/20 11:06:14;;;;;;;2.20;2.00;;;;;;;13.17;28.70;102038.63;5027310;28;20127;-73
2021/03/20 11:08:40;;;;;;;2.30;2.10;;;;;;;13.34;27.29;102038.66;5026892;28;20043;-73
2021/03/20 11:11:23;;;;;;;3.35;2.22;;;;;;;13.82;28.50;102036.94;5049307;28;20063;-73
2021/03/20 11:13:51;;;;;;;3.13;1.63;;;;;;;13.64;27.30;102038.69;5063385;28;20028;-73
2021/03/20 11:16:22;;;;;;;2.70;2.50;;;;;;;12.30;29.73;102038.31;5030595;28;20028;-73
2021/03/20 11:18:52;;;;;;;;;;;;;;;11.28;29.52;102040.13;5047308;28;20028;-73
2021/03/20 11:21:34;;;;;;;2.17;1.92;;;;;;;7.88;35.70;102044.94;5030096;28;19991;-73
2021/03/20 11:24:03;;;;;;;2.78;1.83;;;;;;;8.45;34.32;102033.94;5050154;28;20032;-73
2021/03/20 11:26:35;;;;;;;3.50;2.30;;;;;;;8.99;35.24;102028.91;5016743;28;20024;-73
2021/03/20 11:29:02;;;;;;;3.20;2.00;;;;;;;9.60;35.88;102028.25;5033500;28;20040;-73
2021/03/20 11:31:37;;;;;;;3.40;2.00;;;;;;;9.17;35.73;102022.25;5043031;28;20111;-73
2021/03/20 11:34:04;;;;;;;1.95;1.80;;;;;;;9.88;34.09;102015.50;5050256;28;20028;-73
2021/03/20 11:36:30;;;;;;;3.30;1.83;;;;;;;10.43;31.68;102004.88;5040034;28;20028;-73
2021/03/20 11:38:56;;;;;;;2.47;1.90;;;;;;;11.15;30.52;102015.41;5029121;28;20231;-73
2021/03/20 11:41:35;;;;;;;4.00;1.92;;;;;;;10.86;32.28;102004.50;5024688;28;20056;-73
2021/03/20 11:44:06;;;;;;;2.72;1.92;;;;;;;10.94;31.47;102010.75;5048382;28;20047;-73
2021/03/20 11:46:36;;;;;;;2.10;1.90;;;;;;;8.30;33.48;102000.31;5050253;28;20047;-73
2021/03/20 11:49:02;;;;;;;4.18;2.10;;;;;;;10.12;32.08;101997.41;5033932;28;20044;-73
2021/03/20 11:51:29;;;;;;;3.78;2.40;;;;;;;8.60;36.37;101994.84;5037618;28;20285;-73
2021/03/20 11:54:04;;;;;;;4.00;2.60;;;;;;;9.04;36.59;101987.78;5033094;28;20056;-73
2021/03/20 11:56:32;;;;;;;4.97;2.60;;;;;;;8.88;33.76;101976.09;5034051;28;20033;-73
2021/03/20 11:59:03;;;;;;;3.80;2.05;;;;;;;8.79;33.47;101968.91;5033954;28;20033;-72
2021/03/20 12:01:31;;;;;;;2.78;1.98;;;;;;;8.81;35.34;101966.31;5035347;28;20100;-73
2021/03/20 12:04:00;;;;;;;3.05;2.15;;;;;;;8.93;32.42;101955.09;5033349;28;20025;-72
2021/03/20 12:06:30;;;;;;;2.95;1.80;;;;;;;8.13;32.77;101955.28;5017043;28;20025;-72
2021/03/20 12:08:58;;;;;;;3.43;1.90;;;;;;;9.19;33.93;101950.31;5016915;28;20021;-72
2021/03/20 12:11:48;;;;;;;3.45;2.05;;;;;;;8.38;34.49;101946.16;5033086;28;20046;-72
2021/03/20 12:14:38;;;;;;;2.78;1.90;;;;;;;8.27;34.02;101945.06;5031692;28;20037;-72
2021/03/20 12:17:09;;;;;;;3.03;1.83;;;;;;;7.61;34.85;101937.47;5045253;28;20037;-72
2021/03/20 12:20:07;;;;;;;3.17;2.03;;;;;;;10.25;34.08;101938.72;5051619;28;20497;-73
2021/03/20 12:22:48;;;;;;;3.53;1.90;;;;;;;9.49;33.34;101949.06;5050894;28;20056;-73
2021/03/20 12:25:44;;;;;;;3.33;2.17;;;;;;;8.19;36.83;101942.25;5040043;28;20025;-72
2021/03/20 12:28:20;;;;;;;2.75;2.20;;;;;;;7.32;36.90;101934.19;5035155;28;20103;-71
2021/03/20 12:31:00;;;;;;;2.20;2.00;;;;;;;6.68;38.51;101934.28;5049848;28;20016;-72
2021/03/20 12:33:27;;;;;;;2.88;2.15;;;;;;;6.80;37.91;101934.59;5032571;28;20099;-72
2021/03/20 12:35:53;;;;;;;3.40;2.08;;;;;;;6.82;36.57;101928.50;5049645;28;20112;-72
2021/03/20 12:38:24;;;;;;;2.70;2.10;;;;;;;6.37;37.29;101925.56;5021825;28;20025;-72
2021/03/20 12:40:58;;;;;;;3.22;1.85;;;;;;;7.27;38.96;101920.03;5033815;28;20572;-72
2021/03/20 12:43:30;;;;;;;2.92;1.92;;;;;;;6.76;39.47;101927.50;5051678;28;20045;-73
2021/03/20 12:46:02;;;;;;;3.53;2.35;;;;;;;6.76;38.43;101924.88;5041149;28;20086;-73
2021/03/20 12:48:28;;;;;;;2.20;1.90;;;;;;;8.27;35.59;101911.75;5016396;28;20543;-73
2021/03/20 12:51:10;;;;;;;5.75;3.67;;;;;;;8.28;36.28;101908.28;5040480;28;20036;-73
2021/03/20 12:53:35;;;;;;;2.92;1.95;;;;;;;7.53;36.75;101895.25;5017682;28;20025;-72
2021/03/20 12:56:01;;;;;;;3.45;2.13;;;;;;;7.06;36.49;101892.44;5026399;28;20028;-72
2021/03/20 12:58:26;;;;;;;3.85;2.30;;;;;;;8.41;35.15;101882.22;5036340;28;20127;-73
2021/03/20 13:00:51;;;;;;;2.15;2.05;;;;;;;7.67;34.46;101891.22;5035839;28;20025;-73
2021/03/20 13:03:17;;;;;;;2.75;2.42;;;;;;;8.62;35.76;101887.03;5052152;28;20086;-72
2021/03/20 13:05:43;;;;;;;2.45;2.25;;;;;;;7.07;37.13;101885.44;5035607;28;20543;-72
2021/03/20 13:08:09;;;;;;;5.53;2.20;;;;;;;7.29;38.16;101891.22;5027454;28;20029;-72
2021/03/20 13:10:34;;;;;;;2.70;1.83;;;;;;;7.85;36.56;101884.63;5045781;28;20021;-72
2021/03/20 13:13:00;;;;;;;4.18;2.05;;;;;;;7.12;37.32;101877.69;5040294;28;20040;-72
2021/03/20 13:15:26;;;;;;;3.40;2.10;;;;;;;6.89;33.81;101881.50;5051136;28;20044;-72